Time;durP1;ratioP1;P1;durP2;ratioP2;P2;SDS_P1;SDS_P2;PMS_P1;PMS_P2;Temp;Humidity;BMP_temperature;BMP_pressure;BME280_temperature;BME280_humidity;BME280_pressure;Samples;Min_cycle;Max_cycle;Signal;HPM_P1;HPM_P2
2021/06/09 00:02:23;;;;;;;1.90;1.77;;;15.00;97.20;;;;;;5019672;28;20181;-71
2021/06/09 00:04:49;;;;;;;2.35;2.10;;;14.90;97.20;;;;;;5027267;28;20745;-71
2021/06/09 00:07:14;;;;;;;2.72;1.55;;;14.90;97.20;;;;;;5027628;28;20198;-70
2021/06/09 00:09:40;;;;;;;2.70;2.42;;;14.90;97.30;;;;;;5019951;28;20184;-70
2021/06/09 00:12:07;;;;;;;1.60;1.60;;;14.90;97.30;;;;;;5022864;28;20255;-70
2021/06/09 00:14:32;;;;;;;1.77;1.77;;;14.80;97.40;;;;;;5025454;28;20243;-69
2021/06/09 00:16:58;;;;;;;2.13;1.95;;;14.80;97.50;;;;;;5013933;28;20298;-70
2021/06/09 00:19:25;;;;;;;1.52;1.52;;;14.80;97.70;;;;;;5016819;28;20193;-70
2021/06/09 00:21:53;;;;;;;2.03;1.92;;;14.80;97.50;;;;;;5025537;28;20201;-70
2021/06/09 00:24:20;;;;;;;3.35;1.90;;;14.80;97.60;;;;;;5024819;28;20192;-71
2021/06/09 00:26:46;;;;;;;1.75;1.65;;;14.70;97.70;;;;;;5024742;28;20736;-70
2021/06/09 00:29:12;;;;;;;2.05;1.95;;;14.70;97.80;;;;;;5037545;28;20187;-69
2021/06/09 00:31:39;;;;;;;1.55;1.45;;;14.70;98.00;;;;;;5020749;28;20247;-70
2021/06/09 00:34:04;;;;;;;1.70;1.70;;;14.70;98.10;;;;;;5027284;28;20215;-70
2021/06/09 00:36:30;;;;;;;2.00;1.90;;;14.70;98.40;;;;;;5023272;28;20625;-70
2021/06/09 00:38:56;;;;;;;1.60;1.60;;;14.70;98.40;;;;;;5022643;28;20184;-70
2021/06/09 00:41:22;;;;;;;1.48;1.48;;;14.70;98.40;;;;;;5025325;28;20187;-70
2021/06/09 00:43:48;;;;;;;1.20;1.20;;;14.70;98.30;;;;;;5023602;28;20223;-71
2021/06/09 00:46:14;;;;;;;1.15;1.15;;;14.70;98.10;;;;;;5032369;28;20644;-70
2021/06/09 00:48:42;;;;;;;1.45;1.30;;;14.70;98.10;;;;;;5028126;28;20192;-70
2021/06/09 00:51:16;;;;;;;2.13;1.75;;;14.70;97.90;;;;;;5016491;28;20191;-70
2021/06/09 00:53:48;;;;;;;2.70;2.45;;;14.70;97.80;;;;;;5021593;28;20249;-71
2021/06/09 00:56:15;;;;;;;1.77;1.77;;;14.70;98.20;;;;;;5027360;28;20231;-70
2021/06/09 00:58:43;;;;;;;1.65;1.65;;;14.70;98.20;;;;;;5025826;28;20222;-71
2021/06/09 01:01:11;;;;;;;1.48;1.48;;;14.70;98.20;;;;;;5021096;28;20738;-71
2021/06/09 01:03:38;;;;;;;1.38;1.38;;;14.70;98.20;;;;;;5014856;28;20200;-70
2021/06/09 01:06:05;;;;;;;1.92;1.83;;;14.70;98.00;;;;;;5021289;28;20184;-71
2021/06/09 01:08:33;;;;;;;1.63;1.63;;;14.60;97.90;;;;;;5019765;28;20211;-71
2021/06/09 01:11:00;;;;;;;2.03;1.83;;;14.70;98.00;;;;;;5020989;28;20185;-70
2021/06/09 01:13:29;;;;;;;1.60;1.60;;;14.60;98.10;;;;;;5026527;28;20216;-71
2021/06/09 01:15:54;;;;;;;1.50;1.50;;;14.60;98.20;;;;;;5026343;28;20192;-70
2021/06/09 01:18:20;;;;;;;1.63;1.63;;;14.60;98.20;;;;;;5017868;28;20189;-70
2021/06/09 01:20:47;;;;;;;2.15;1.60;;;14.60;98.40;;;;;;5018339;28;20182;-71
2021/06/09 01:23:13;;;;;;;2.25;1.58;;;14.60;98.30;;;;;;5024778;28;20215;-70
2021/06/09 01:25:39;;;;;;;1.48;1.48;;;14.60;98.40;;;;;;5026441;28;20822;-70
2021/06/09 01:28:07;;;;;;;1.92;1.77;;;14.60;98.50;;;;;;5022471;28;20267;-71
2021/06/09 01:30:34;;;;;;;1.90;1.80;;;14.50;98.30;;;;;;5020929;28;20180;-71
2021/06/09 01:33:00;;;;;;;1.70;1.70;;;14.50;98.40;;;;;;5026082;28;20573;-70
2021/06/09 01:35:27;;;;;;;1.65;1.65;;;14.40;98.20;;;;;;5024926;28;20882;-71
2021/06/09 01:37:53;;;;;;;1.42;1.42;;;14.40;98.10;;;;;;5021533;28;20188;-70
2021/06/09 01:40:24;;;;;;;1.70;1.70;;;14.30;98.30;;;;;;5017194;28;20181;-69
2021/06/09 01:42:52;;;;;;;1.20;1.20;;;14.30;97.80;;;;;;5018723;28;20179;-70
2021/06/09 01:45:21;;;;;;;1.55;1.55;;;14.30;98.00;;;;;;5020375;28;20188;-70
2021/06/09 01:47:47;;;;;;;1.70;1.70;;;14.30;97.90;;;;;;5020867;28;20202;-70
2021/06/09 01:50:14;;;;;;;1.80;1.80;;;14.20;97.90;;;;;;5022240;28;20181;-69
2021/06/09 01:52:41;;;;;;;1.30;1.30;;;14.20;97.70;;;;;;5040228;28;20189;-69
2021/06/09 01:55:09;;;;;;;1.65;1.55;;;14.20;97.80;;;;;;5018327;28;20214;-69
2021/06/09 01:57:36;;;;;;;1.52;1.40;;;14.10;97.80;;;;;;5021286;28;20184;-70
2021/06/09 02:00:06;;;;;;;1.90;1.80;;;14.10;98.00;;;;;;5025951;28;20311;-70
2021/06/09 02:02:31;;;;;;;1.90;1.80;;;14.10;98.00;;;;;;5019486;28;20177;-70
2021/06/09 02:04:58;;;;;;;1.90;1.80;;;14.00;98.20;;;;;;5021768;28;20196;-69
2021/06/09 02:07:24;;;;;;;1.55;1.55;;;14.00;98.10;;;;;;5015955;28;20188;-69
2021/06/09 02:09:50;;;;;;;2.15;2.03;;;14.00;98.20;;;;;;5014143;28;20584;-69
2021/06/09 02:12:19;;;;;;;2.40;2.30;;;14.00;98.40;;;;;;5018575;28;20192;-70
2021/06/09 02:14:45;;;;;;;2.08;2.08;;;14.00;98.50;;;;;;5021929;28;20224;-71
2021/06/09 02:17:11;;;;;;;1.80;1.80;;;14.00;98.50;;;;;;5025592;28;20238;-72
2021/06/09 02:19:37;;;;;;;1.42;1.42;;;14.00;98.50;;;;;;5028226;28;20191;-70
2021/06/09 02:22:04;;;;;;;5.75;2.38;;;13.90;98.50;;;;;;5023515;28;20216;-70
2021/06/09 02:24:31;;;;;;;1.73;1.63;;;13.90;98.50;;;;;;5025654;28;20188;-71
2021/06/09 02:26:57;;;;;;;1.90;1.83;;;13.90;98.50;;;;;;5024594;28;20662;-70
2021/06/09 02:29:23;;;;;;;1.98;1.98;;;13.80;98.50;;;;;;5023633;28;20191;-72
2021/06/09 02:31:50;;;;;;;1.92;1.83;;;13.90;98.50;;;;;;5026971;28;20185;-71
2021/06/09 02:34:18;;;;;;;1.63;1.63;;;13.80;98.50;;;;;;5019303;28;20219;-70
2021/06/09 02:36:44;;;;;;;1.83;1.73;;;13.80;98.50;;;;;;5023787;28;20184;-71
2021/06/09 02:39:11;;;;;;;1.55;1.45;;;13.90;98.50;;;;;;5027369;28;20191;-71
2021/06/09 02:41:37;;;;;;;2.00;1.90;;;13.90;98.50;;;;;;5024172;28;20216;-71
2021/06/09 02:44:06;;;;;;;1.95;1.85;;;13.90;98.50;;;;;;5030086;28;20188;-71
2021/06/09 02:46:37;;;;;;;1.38;1.35;;;14.00;98.50;;;;;;5022398;28;20254;-71
2021/06/09 02:49:06;;;;;;;2.17;1.95;;;14.00;98.50;;;;;;5025050;28;20199;-71
2021/06/09 02:51:44;;;;;;;2.70;2.38;;;14.10;98.50;;;;;;5019909;28;20615;-70
2021/06/09 02:54:15;;;;;;;2.55;2.35;;;14.10;98.50;;;;;;5025481;28;20289;-70
2021/06/09 02:57:00;;;;;;;2.67;2.55;;;14.10;98.50;;;;;;5023389;28;20195;-71
2021/06/09 02:59:51;;;;;;;3.40;2.65;;;14.10;98.50;;;;;;5023209;28;20268;-71
2021/06/09 03:02:35;;;;;;;3.28;2.92;;;14.10;98.50;;;;;;5024313;28;20185;-70
2021/06/09 03:05:09;;;;;;;2.67;2.58;;;14.10;98.50;;;;;;5023670;28;20196;-70
2021/06/09 03:07:43;;;;;;;3.40;3.10;;;14.10;98.50;;;;;;5025845;28;20944;-71
2021/06/09 03:10:26;;;;;;;6.47;3.17;;;14.10;98.50;;;;;;5018554;28;20263;-71
2021/06/09 03:13:04;;;;;;;2.55;2.45;;;14.10;98.50;;;;;;5017166;28;20223;-71
2021/06/09 03:15:40;;;;;;;3.38;2.70;;;14.10;98.50;;;;;;5047110;28;20189;-70
2021/06/09 03:18:20;;;;;;;2.30;2.20;;;14.20;98.50;;;;;;5020715;28;20330;-70
2021/06/09 03:21:14;;;;;;;2.67;2.58;;;14.20;98.50;;;;;;5023229;28;20217;-70
2021/06/09 03:24:00;;;;;;;2.35;2.25;;;14.20;98.50;;;;;;4980824;28;20194;-71
2021/06/09 03:26:32;;;;;;;3.67;2.50;;;14.20;98.50;;;;;;4979307;28;20189;-69
2021/06/09 03:29:10;;;;;;;2.35;2.25;;;14.20;98.50;;;;;;4981741;28;20204;-69
2021/06/09 03:31:41;;;;;;;2.72;2.50;;;14.20;98.50;;;;;;4978592;28;20194;-69
2021/06/09 03:34:15;;;;;;;2.75;2.65;;;14.30;98.50;;;;;;4986015;28;20237;-71
2021/06/09 03:36:42;;;;;;;2.22;2.15;;;14.30;98.50;;;;;;4967896;28;20735;-70
2021/06/09 03:39:11;;;;;;;2.17;2.08;;;14.40;98.50;;;;;;4981595;28;20587;-71
2021/06/09 03:41:52;;;;;;;2.20;2.10;;;14.40;98.50;;;;;;4981164;28;20932;-70
2021/06/09 03:44:30;;;;;;;4.45;2.22;;;14.50;98.50;;;;;;4979409;28;20197;-71
2021/06/09 03:46:57;;;;;;;3.13;2.03;;;14.50;98.50;;;;;;4979381;28;20736;-71
2021/06/09 03:49:25;;;;;;;4.18;2.65;;;14.60;98.50;;;;;;4976560;28;20186;-71
2021/06/09 03:51:53;;;;;;;2.67;2.38;;;14.60;98.50;;;;;;4981715;28;20239;-70
2021/06/09 03:54:20;;;;;;;3.33;3.03;;;14.70;98.50;;;;;;4978207;28;20238;-69
2021/06/09 03:56:49;;;;;;;3.70;3.40;;;14.60;98.50;;;;;;4986631;28;20185;-70
2021/06/09 03:59:15;;;;;;;3.28;2.95;;;14.60;98.50;;;;;;4982311;28;20216;-70
2021/06/09 04:01:42;;;;;;;4.40;4.03;;;14.70;98.50;;;;;;5025515;28;20223;-71
2021/06/09 04:04:14;;;;;;;3.55;3.35;;;14.70;98.30;;;;;;5022065;28;20689;-70
2021/06/09 04:06:43;;;;;;;3.75;3.45;;;14.70;98.10;;;;;;5021368;28;20188;-69
2021/06/09 04:09:12;;;;;;;3.28;2.97;;;14.60;98.10;;;;;;5024067;28;20200;-70
2021/06/09 04:11:39;;;;;;;2.70;2.60;;;14.70;98.00;;;;;;5023115;28;20184;-69
2021/06/09 04:14:08;;;;;;;3.25;3.05;;;14.70;98.00;;;;;;5020062;28;20555;-73
2021/06/09 04:16:37;;;;;;;3.28;3.10;;;14.80;97.90;;;;;;5027515;28;20897;-70
2021/06/09 04:19:05;;;;;;;3.38;3.17;;;14.80;98.00;;;;;;5016536;28;20276;-70
2021/06/09 04:21:31;;;;;;;3.25;3.05;;;14.90;98.10;;;;;;5022382;28;20268;-71
2021/06/09 04:23:57;;;;;;;5.57;3.17;;;15.00;98.20;;;;;;5017442;28;20277;-71
2021/06/09 04:26:24;;;;;;;5.53;3.08;;;15.00;98.00;;;;;;5020819;28;20177;-72
2021/06/09 04:28:53;;;;;;;3.72;3.25;;;15.10;97.80;;;;;;5023815;28;20274;-72
2021/06/09 04:31:19;;;;;;;4.47;4.18;;;15.10;97.50;;;;;;5027685;28;20216;-72
2021/06/09 04:33:46;;;;;;;3.85;3.58;;;15.10;97.30;;;;;;5025019;28;20216;-71
2021/06/09 04:36:13;;;;;;;7.07;3.08;;;15.10;97.10;;;;;;5016858;28;20188;-71
2021/06/09 04:38:39;;;;;;;5.68;3.55;;;15.10;96.80;;;;;;5023995;28;20192;-71
2021/06/09 04:41:06;;;;;;;3.60;3.40;;;15.20;97.00;;;;;;5027311;28;20180;-72
2021/06/09 04:43:31;;;;;;;4.10;3.75;;;15.20;97.10;;;;;;5024341;28;20267;-70
2021/06/09 04:45:57;;;;;;;4.60;4.20;;;15.20;96.80;;;;;;5029152;28;20267;-72
2021/06/09 04:48:23;;;;;;;5.05;3.83;;;15.20;97.10;;;;;;5021463;28;20200;-73
2021/06/09 04:50:50;;;;;;;4.38;4.00;;;15.20;96.80;;;;;;5018311;28;20188;-72
2021/06/09 04:53:17;;;;;;;3.60;3.40;;;15.20;96.70;;;;;;5018001;28;20204;-74
2021/06/09 04:55:45;;;;;;;3.75;3.45;;;15.30;96.80;;;;;;5019982;28;20180;-72
2021/06/09 04:58:12;;;;;;;3.45;3.25;;;15.30;96.60;;;;;;5022651;28;20176;-72
2021/06/09 05:00:39;;;;;;;3.92;3.72;;;15.40;96.30;;;;;;5030564;28;20542;-72
2021/06/09 05:03:05;;;;;;;5.55;4.60;;;15.50;96.00;;;;;;5020861;28;20188;-73
2021/06/09 05:05:31;;;;;;;5.20;4.72;;;15.60;95.80;;;;;;5028139;28;20193;-72
2021/06/09 05:07:56;;;;;;;4.75;4.40;;;15.60;95.70;;;;;;5023067;28;20219;-72
2021/06/09 05:10:23;;;;;;;3.92;3.67;;;15.60;95.40;;;;;;5021370;28;21546;-72
2021/06/09 05:13:16;;;;;;;4.22;3.88;;;15.70;95.60;;;;;;5022409;28;20189;-72
2021/06/09 05:15:48;;;;;;;4.63;4.32;;;15.70;95.20;;;;;;5018157;28;20185;-73
2021/06/09 05:18:21;;;;;;;4.60;4.10;;;15.80;95.90;;;;;;5018905;28;20183;-72
2021/06/09 05:20:49;;;;;;;5.05;4.70;;;15.90;94.90;;;;;;5014023;28;20181;-72
2021/06/09 05:23:20;;;;;;;4.15;3.83;;;15.90;95.00;;;;;;5019977;28;20258;-73
2021/06/09 05:25:49;;;;;;;5.55;4.25;;;15.90;94.80;;;;;;5014732;28;20172;-72
2021/06/09 05:28:16;;;;;;;4.43;4.05;;;15.90;94.70;;;;;;5019941;28;20187;-71
2021/06/09 05:30:42;;;;;;;5.28;4.25;;;16.00;94.90;;;;;;5026496;28;20184;-72
2021/06/09 05:33:10;;;;;;;4.78;4.47;;;16.00;95.60;;;;;;5026115;28;20208;-74
2021/06/09 05:35:36;;;;;;;5.70;4.57;;;16.10;95.20;;;;;;5017054;28;20246;-71
2021/06/09 05:38:03;;;;;;;5.15;4.57;;;16.20;95.00;;;;;;5022118;28;20184;-71
2021/06/09 05:40:28;;;;;;;4.70;4.35;;;16.30;95.00;;;;;;5017760;28;20324;-71
2021/06/09 05:42:54;;;;;;;4.78;4.47;;;16.40;94.80;;;;;;5015021;28;20303;-70
2021/06/09 05:45:27;;;;;;;4.93;4.50;;;16.60;94.90;;;;;;5023775;28;20250;-68
2021/06/09 05:47:53;;;;;;;4.90;4.10;;;16.70;94.70;;;;;;5022348;28;20192;-67
2021/06/09 05:50:22;;;;;;;5.22;4.82;;;16.90;94.90;;;;;;5024912;28;20242;-67
2021/06/09 05:52:51;;;;;;;4.60;4.20;;;17.00;94.70;;;;;;5024972;28;20193;-67
2021/06/09 05:55:22;;;;;;;5.20;4.82;;;17.10;94.30;;;;;;5024338;28;20180;-69
2021/06/09 05:57:49;;;;;;;4.97;4.57;;;17.20;93.90;;;;;;5025488;28;20221;-69
2021/06/09 06:00:17;;;;;;;5.90;5.30;;;17.20;92.90;;;;;;5025566;28;20176;-70
2021/06/09 06:02:43;;;;;;;7.82;6.13;;;17.10;91.40;;;;;;5024662;28;20219;-67
2021/06/09 06:05:09;;;;;;;6.43;5.82;;;17.10;91.60;;;;;;5022564;28;20744;-69
2021/06/09 06:07:36;;;;;;;5.45;5.05;;;17.00;91.80;;;;;;5017631;28;20204;-72
2021/06/09 06:10:06;;;;;;;5.45;5.00;;;17.00;92.40;;;;;;5020727;28;20706;-72
2021/06/09 06:12:33;;;;;;;6.00;5.47;;;16.90;92.40;;;;;;5021321;28;20636;-73
2021/06/09 06:14:59;;;;;;;5.28;4.90;;;16.90;92.70;;;;;;5019863;28;20246;-72
2021/06/09 06:17:25;;;;;;;7.97;5.32;;;16.90;93.00;;;;;;5020242;28;20908;-72
2021/06/09 06:19:51;;;;;;;5.93;5.43;;;16.90;92.80;;;;;;5022094;28;20220;-70
2021/06/09 06:22:18;;;;;;;5.53;5.05;;;16.80;93.00;;;;;;5031247;28;20267;-68
2021/06/09 06:24:47;;;;;;;6.32;5.82;;;16.80;93.20;;;;;;5031367;28;20193;-70
2021/06/09 06:27:14;;;;;;;5.30;4.57;;;16.80;93.00;;;;;;5027217;28;20899;-69
2021/06/09 06:29:41;;;;;;;6.95;5.63;;;16.80;93.00;;;;;;5028926;28;20179;-70
2021/06/09 06:32:09;;;;;;;7.40;5.78;;;16.80;93.10;;;;;;5029193;28;20192;-71
2021/06/09 06:34:49;;;;;;;7.82;4.75;;;16.70;93.20;;;;;;5024612;28;20211;-70
2021/06/09 06:37:17;;;;;;;4.95;4.55;;;16.80;93.00;;;;;;5030947;28;20580;-70
2021/06/09 06:39:43;;;;;;;5.05;4.70;;;16.80;93.10;;;;;;5028936;28;20667;-71
2021/06/09 06:42:10;;;;;;;5.22;4.80;;;16.80;93.10;;;;;;5030122;28;20196;-69
2021/06/09 06:44:40;;;;;;;7.50;4.75;;;16.80;93.70;;;;;;5031457;28;20435;-69
2021/06/09 06:47:05;;;;;;;5.97;5.47;;;16.80;93.90;;;;;;5027590;28;20200;-68
2021/06/09 06:49:32;;;;;;;6.10;5.50;;;16.90;94.50;;;;;;5031543;28;20180;-69
2021/06/09 06:51:58;;;;;;;12.32;6.30;;;16.90;93.50;;;;;;5028620;28;20188;-71
2021/06/09 06:54:25;;;;;;;10.80;6.38;;;16.90;93.40;;;;;;5028763;28;20330;-69
2021/06/09 06:56:54;;;;;;;9.60;7.35;;;16.90;93.50;;;;;;5031027;28;20219;-69
2021/06/09 06:59:24;;;;;;;7.82;7.03;;;16.90;92.90;;;;;;5034071;28;20185;-69
2021/06/09 07:01:51;;;;;;;9.13;6.15;;;16.90;92.60;;;;;;5030498;28;20184;-69
2021/06/09 07:04:18;;;;;;;6.47;5.38;;;17.00;92.80;;;;;;5029803;28;20207;-71
2021/06/09 07:06:45;;;;;;;5.63;5.25;;;17.00;91.40;;;;;;5033274;28;20179;-69
2021/06/09 07:09:12;;;;;;;5.68;4.47;;;17.00;91.70;;;;;;5035316;28;20700;-70
2021/06/09 07:11:46;;;;;;;5.63;4.80;;;17.10;92.00;;;;;;5031773;28;20187;-70
2021/06/09 07:14:13;;;;;;;7.15;4.95;;;17.10;91.70;;;;;;5034660;28;20214;-68
2021/06/09 07:16:41;;;;;;;6.22;5.10;;;17.20;92.10;;;;;;5037046;28;20261;-70
2021/06/09 07:19:08;;;;;;;7.05;5.20;;;17.30;92.10;;;;;;5038175;28;20217;-68
2021/06/09 07:21:34;;;;;;;5.68;5.03;;;17.40;92.30;;;;;;5035648;28;20230;-68
2021/06/09 07:24:04;;;;;;;5.28;4.82;;;17.50;92.50;;;;;;5032773;28;20188;-69
2021/06/09 07:26:53;;;;;;;5.43;5.00;;;17.50;92.20;;;;;;5034084;28;20192;-70
2021/06/09 07:29:23;;;;;;;7.95;5.63;;;17.60;92.60;;;;;;5033866;28;20180;-70
2021/06/09 07:31:49;;;;;;;5.97;5.45;;;17.70;92.10;;;;;;5032134;28;20689;-70
2021/06/09 07:34:16;;;;;;;8.50;6.10;;;17.80;92.00;;;;;;5036658;28;20211;-70
2021/06/09 07:36:49;;;;;;;5.38;4.88;;;17.80;92.70;;;;;;5037712;28;20670;-70
2021/06/09 07:39:34;;;;;;;5.20;4.80;;;17.90;92.60;;;;;;5034759;28;20183;-70
2021/06/09 07:42:05;;;;;;;5.05;4.55;;;18.00;90.80;;;;;;5031846;28;20186;-68
2021/06/09 07:44:40;;;;;;;4.82;4.43;;;18.10;90.30;;;;;;5036246;28;20563;-69
2021/06/09 07:47:09;;;;;;;5.13;4.70;;;18.10;89.50;;;;;;5032937;28;20202;-68
2021/06/09 07:49:37;;;;;;;6.63;5.50;;;18.20;89.10;;;;;;5042845;28;20224;-71
2021/06/09 07:52:04;;;;;;;6.13;5.53;;;18.30;89.10;;;;;;5036661;28;20229;-72
2021/06/09 07:54:32;;;;;;;5.78;5.28;;;18.40;88.80;;;;;;5035214;28;21164;-69
2021/06/09 07:57:00;;;;;;;5.53;5.03;;;18.40;89.20;;;;;;5031629;28;20184;-68
2021/06/09 07:59:27;;;;;;;5.20;4.65;;;18.50;89.10;;;;;;5035726;28;20176;-68
2021/06/09 08:01:53;;;;;;;4.40;4.20;;;18.60;89.10;;;;;;5029710;28;20203;-70
2021/06/09 08:04:20;;;;;;;6.40;4.45;;;18.60;89.40;;;;;;5033744;28;20181;-70
2021/06/09 08:06:46;;;;;;;4.18;3.78;;;18.70;89.70;;;;;;5031173;28;20176;-70
2021/06/09 08:09:15;;;;;;;6.93;3.88;;;18.80;89.70;;;;;;5034563;28;20218;-70
2021/06/09 08:11:41;;;;;;;4.78;3.55;;;18.90;89.60;;;;;;5031224;28;20184;-70
2021/06/09 08:14:08;;;;;;;4.72;4.43;;;19.00;89.30;;;;;;5028244;28;20587;-70
2021/06/09 08:16:36;;;;;;;4.75;4.20;;;19.10;89.20;;;;;;5033954;28;20227;-69
2021/06/09 08:19:08;;;;;;;5.65;3.63;;;19.20;88.70;;;;;;5029384;28;20189;-69
2021/06/09 08:21:35;;;;;;;3.92;3.58;;;19.30;88.30;;;;;;5030974;28;20184;-70
2021/06/09 08:24:02;;;;;;;3.72;3.40;;;19.40;88.50;;;;;;5029197;28;20188;-70
2021/06/09 08:26:28;;;;;;;3.45;3.22;;;19.40;88.30;;;;;;5035846;28;20267;-70
2021/06/09 08:28:55;;;;;;;4.15;3.88;;;19.50;87.50;;;;;;5035022;28;20358;-70
2021/06/09 08:31:30;;;;;;;4.50;4.10;;;19.60;86.90;;;;;;5033712;28;20584;-70
2021/06/09 08:33:57;;;;;;;3.25;3.10;;;19.70;86.90;;;;;;5027141;28;20207;-68
2021/06/09 08:36:24;;;;;;;3.38;3.17;;;19.70;85.50;;;;;;5017288;28;20700;-68
2021/06/09 08:38:53;;;;;;;4.15;3.22;;;19.80;85.40;;;;;;5022707;28;20579;-68
2021/06/09 08:41:21;;;;;;;2.95;2.58;;;19.90;86.50;;;;;;5025665;28;20199;-68
2021/06/09 08:43:48;;;;;;;3.22;3.00;;;20.00;86.10;;;;;;5022309;28;20195;-70
2021/06/09 08:46:16;;;;;;;6.00;3.17;;;20.10;85.90;;;;;;5026140;28;20184;-70
2021/06/09 08:48:44;;;;;;;4.50;3.90;;;20.20;85.70;;;;;;5022939;28;20497;-69
2021/06/09 08:51:11;;;;;;;4.72;3.38;;;20.30;85.20;;;;;;5025146;28;20192;-69
2021/06/09 08:53:51;;;;;;;3.70;3.38;;;20.40;85.10;;;;;;5024242;28;20220;-69
2021/06/09 08:56:18;;;;;;;4.70;3.45;;;20.50;84.50;;;;;;5023726;28;20270;-70
2021/06/09 08:58:44;;;;;;;2.35;2.25;;;20.60;85.50;;;;;;5024755;28;20191;-70
2021/06/09 09:01:12;;;;;;;8.05;2.25;;;20.70;83.30;;;;;;5027220;28;20576;-70
2021/06/09 09:03:41;;;;;;;1.70;1.67;;;20.80;81.20;;;;;;5031706;28;20253;-70
2021/06/09 09:06:06;;;;;;;2.28;1.92;;;20.90;83.90;;;;;;5033835;28;20230;-69
2021/06/09 09:08:33;;;;;;;2.05;1.95;;;21.00;81.90;;;;;;5027050;28;20183;-69
2021/06/09 09:10:59;;;;;;;2.67;1.80;;;21.10;82.60;;;;;;5020866;28;20187;-69
2021/06/09 09:13:26;;;;;;;2.22;2.22;;;21.20;82.70;;;;;;5017602;28;20212;-70
2021/06/09 09:15:53;;;;;;;1.80;1.70;;;21.30;83.20;;;;;;5026102;28;20758;-70
2021/06/09 09:18:19;;;;;;;1.83;1.73;;;21.40;80.30;;;;;;5024877;28;20188;-68
2021/06/09 09:20:47;;;;;;;1.73;1.73;;;21.50;79.90;;;;;;5022900;28;20230;-70
2021/06/09 09:23:25;;;;;;;4.95;2.40;;;21.60;80.80;;;;;;5024341;28;20180;-69
2021/06/09 09:25:54;;;;;;;2.03;1.92;;;21.80;79.90;;;;;;5024091;28;20211;-68
2021/06/09 09:28:32;;;;;;;2.85;1.90;;;21.90;79.50;;;;;;5024597;28;20582;-68
2021/06/09 09:31:14;;;;;;;2.15;2.15;;;22.00;79.80;;;;;;5019094;28;20192;-68
2021/06/09 09:33:40;;;;;;;1.90;1.80;;;22.10;79.80;;;;;;5021698;28;20234;-69
2021/06/09 09:36:19;;;;;;;2.08;1.48;;;22.30;78.80;;;;;;5024962;28;20703;-69
2021/06/09 09:38:45;;;;;;;1.40;1.40;;;22.40;79.10;;;;;;5023630;28;20194;-70
2021/06/09 09:41:14;;;;;;;2.25;2.15;;;22.50;74.30;;;;;;5025577;28;20188;-69
2021/06/09 09:43:53;;;;;;;2.55;1.33;;;22.60;74.20;;;;;;5015381;28;20180;-70
2021/06/09 09:46:24;;;;;;;1.50;1.50;;;22.60;74.50;;;;;;5023164;28;20476;-69
2021/06/09 09:49:08;;;;;;;2.03;1.02;;;22.70;74.00;;;;;;5022227;28;20621;-70
2021/06/09 09:51:56;;;;;;;1.55;1.55;;;22.80;74.60;;;;;;5025741;28;20681;-69
2021/06/09 09:54:26;;;;;;;1.52;1.52;;;22.90;75.00;;;;;;5025516;28;20334;-70
2021/06/09 09:56:52;;;;;;;1.73;1.55;;;23.00;74.70;;;;;;5024905;28;20188;-69
2021/06/09 09:59:22;;;;;;;1.60;1.50;;;23.10;71.40;;;;;;5016879;28;20192;-70
2021/06/09 10:01:52;;;;;;;1.77;1.67;;;23.20;73.20;;;;;;5026512;28;20271;-69
2021/06/09 10:04:20;;;;;;;1.25;1.23;;;23.30;72.90;;;;;;5014066;28;20188;-69
2021/06/09 10:06:49;;;;;;;1.38;1.38;;;23.40;73.60;;;;;;5023695;28;20207;-70
2021/06/09 10:09:27;;;;;;;0.90;0.90;;;23.50;73.00;;;;;;5022153;28;20283;-70
2021/06/09 10:11:54;;;;;;;0.82;0.82;;;23.70;69.70;;;;;;5022924;28;20244;-69
2021/06/09 10:14:23;;;;;;;0.90;0.90;;;23.90;65.80;;;;;;5024779;28;20660;-69
2021/06/09 10:17:09;;;;;;;1.17;1.17;;;24.20;67.10;;;;;;5021912;28;20800;-69
2021/06/09 10:19:39;;;;;;;1.70;1.27;;;24.60;66.30;;;;;;5025929;28;20211;-70
2021/06/09 10:22:16;;;;;;;1.25;1.25;;;25.10;66.70;;;;;;5027064;28;20188;-69
2021/06/09 10:24:43;;;;;;;1.38;1.38;;;25.40;62.60;;;;;;5024060;28;20214;-69
2021/06/09 10:27:09;;;;;;;1.20;1.20;;;25.60;65.10;;;;;;5016066;28;20177;-70
2021/06/09 10:29:35;;;;;;;3.20;1.58;;;25.70;66.20;;;;;;5024600;28;20180;-70
2021/06/09 10:32:06;;;;;;;1.40;1.40;;;25.70;65.60;;;;;;5025717;28;20188;-70
2021/06/09 10:34:34;;;;;;;1.40;1.40;;;25.70;64.40;;;;;;5021436;28;20286;-70
2021/06/09 10:37:03;;;;;;;1.48;1.42;;;25.70;65.30;;;;;;5022390;28;20185;-70
2021/06/09 10:39:32;;;;;;;1.00;1.00;;;26.00;65.90;;;;;;5023083;28;20246;-69
2021/06/09 10:42:07;;;;;;;1.77;1.40;;;26.70;62.80;;;;;;5024264;28;20248;-70
2021/06/09 10:44:36;;;;;;;1.20;1.20;;;27.50;63.30;;;;;;5025574;28;20264;-69
2021/06/09 10:47:03;;;;;;;2.90;1.40;;;28.30;63.50;;;;;;5019754;28;20211;-69
2021/06/09 10:49:35;;;;;;;1.25;1.02;;;29.20;61.10;;;;;;5022921;28;20177;-70
2021/06/09 10:52:03;;;;;;;4.43;1.27;;;29.90;60.30;;;;;;5020853;28;20248;-68
2021/06/09 10:54:29;;;;;;;1.42;1.33;;;30.60;58.90;;;;;;5025671;28;20219;-69
2021/06/09 10:56:56;;;;;;;1.10;1.10;;;31.40;57.80;;;;;;5024945;28;20200;-69
2021/06/09 10:59:27;;;;;;;2.00;1.27;;;32.10;56.80;;;;;;5022938;28;20188;-69
2021/06/09 11:02:06;;;;;;;1.30;1.23;;;32.90;55.70;;;;;;5023073;28;20242;-71
2021/06/09 11:04:43;;;;;;;1.08;1.08;;;33.70;53.40;;;;;;5028655;28;20190;-69
2021/06/09 11:07:33;;;;;;;1.17;1.17;;;34.40;53.90;;;;;;5028393;28;20195;-70
2021/06/09 11:10:07;;;;;;;1.17;1.00;;;35.00;50.50;;;;;;5024077;28;20271;-69
2021/06/09 11:12:40;;;;;;;2.35;0.77;;;35.10;50.10;;;;;;5023974;28;20253;-69
2021/06/09 11:15:12;;;;;;;0.70;0.70;;;35.30;51.10;;;;;;5026152;28;20204;-70
2021/06/09 11:17:45;;;;;;;3.17;1.08;;;35.50;51.50;;;;;;5018633;28;20696;-69
2021/06/09 11:20:11;;;;;;;0.82;0.82;;;35.90;49.50;;;;;;5026909;28;20199;-70
2021/06/09 11:22:46;;;;;;;0.77;0.77;;;36.40;50.70;;;;;;5027526;28;20188;-70
2021/06/09 11:25:18;;;;;;;1.17;0.90;;;36.50;48.40;;;;;;5028242;28;20630;-69
2021/06/09 11:28:02;;;;;;;0.70;0.70;;;36.80;50.50;;;;;;5025976;28;20275;-69
2021/06/09 11:30:44;;;;;;;1.10;1.10;;;37.00;46.70;;;;;;5024976;28;20179;-69
2021/06/09 11:33:27;;;;;;;1.58;1.10;;;37.00;47.50;;;;;;5026898;28;20211;-70
2021/06/09 11:35:57;;;;;;;1.50;0.90;;;36.50;49.90;;;;;;5019967;28;20180;-70
2021/06/09 11:38:24;;;;;;;1.10;1.10;;;35.80;53.30;;;;;;5026294;28;20269;-72
2021/06/09 11:40:51;;;;;;;1.10;1.10;;;35.00;52.80;;;;;;5027732;28;20184;-69
2021/06/09 11:43:22;;;;;;;1.05;1.05;;;34.80;52.70;;;;;;5027635;28;20192;-69
2021/06/09 11:45:57;;;;;;;0.93;0.90;;;35.00;52.10;;;;;;5027938;28;20191;-69
2021/06/09 11:48:24;;;;;;;3.60;1.17;;;35.50;51.00;;;;;;5026496;28;20205;-71
2021/06/09 11:50:54;;;;;;;1.00;1.00;;;35.60;52.00;;;;;;5026560;28;20603;-70
2021/06/09 11:53:39;;;;;;;1.05;1.05;;;35.20;52.80;;;;;;5026193;28;20223;-71
2021/06/09 11:56:33;;;;;;;1.95;1.00;;;34.50;49.90;;;;;;5027855;28;20172;-71
2021/06/09 11:59:19;;;;;;;1.08;1.08;;;33.90;50.40;;;;;;5026894;28;20199;-71
2021/06/09 12:01:48;;;;;;;0.80;0.80;;;33.20;52.80;;;;;;5021892;28;20191;-70
2021/06/09 12:04:38;;;;;;;0.75;0.75;;;32.60;54.40;;;;;;5027322;28;20241;-70
2021/06/09 12:07:06;;;;;;;1.20;1.10;;;32.10;52.20;;;;;;4967740;28;20666;-72
2021/06/09 12:09:38;;;;;;;2.72;0.80;;;31.80;56.30;;;;;;4965735;28;20189;-71
2021/06/09 12:12:13;;;;;;;1.17;1.08;;;31.40;56.80;;;;;;4982092;28;20640;-70
2021/06/09 12:14:44;;;;;;;0.90;0.90;;;31.10;55.00;;;;;;4985242;28;20254;-71
2021/06/09 12:17:19;;;;;;;0.88;0.88;;;30.80;54.90;;;;;;4984768;28;20193;-71
2021/06/09 12:20:11;;;;;;;3.90;1.20;;;30.60;57.80;;;;;;4985352;28;20884;-70
2021/06/09 12:22:44;;;;;;;1.10;1.10;;;30.50;56.70;;;;;;4976533;28;20216;-70
2021/06/09 12:25:21;;;;;;;1.98;1.10;;;30.40;57.50;;;;;;4985153;28;20193;-71
2021/06/09 12:28:00;;;;;;;1.08;1.08;;;30.30;56.50;;;;;;4985251;28;20274;-70
2021/06/09 12:30:27;;;;;;;0.98;0.98;;;30.30;57.00;;;;;;4984785;28;21069;-71
2021/06/09 12:32:53;;;;;;;1.30;1.20;;;30.20;55.90;;;;;;4984580;28;20186;-70
2021/06/09 12:35:20;;;;;;;1.00;0.95;;;30.10;55.90;;;;;;4981888;28;20193;-70
2021/06/09 12:37:50;;;;;;;0.95;0.82;;;30.60;56.40;;;;;;4984805;28;20200;-71
2021/06/09 12:40:28;;;;;;;0.90;0.90;;;31.60;55.50;;;;;;4984477;28;20190;-70
2021/06/09 12:42:57;;;;;;;0.90;0.90;;;33.00;52.60;;;;;;4984669;28;20667;-71
2021/06/09 12:45:24;;;;;;;0.70;0.70;;;34.30;51.80;;;;;;5018653;28;20194;-70
2021/06/09 12:47:51;;;;;;;0.85;0.85;;;35.50;50.60;;;;;;5025243;28;20261;-70
2021/06/09 12:50:35;;;;;;;1.15;1.15;;;36.50;49.00;;;;;;5026888;28;20254;-70
2021/06/09 12:53:10;;;;;;;0.70;0.70;;;37.50;48.20;;;;;;5025314;28;20245;-71
2021/06/09 12:55:38;;;;;;;0.90;0.90;;;38.40;46.10;;;;;;5024961;28;21321;-70
2021/06/09 12:58:08;;;;;;;0.90;0.90;;;38.70;46.80;;;;;;5026480;28;20203;-71
2021/06/09 13:00:39;;;;;;;0.93;0.80;;;38.00;47.10;;;;;;5026316;28;20665;-70
2021/06/09 13:03:24;;;;;;;2.40;1.48;;;36.90;49.60;;;;;;5018307;28;20176;-72